createdAt,value
2023-03-29T00:01:34.987Z,-5.00
2023-03-29T00:04:03.992Z,-3.80
2023-03-29T00:06:32.282Z,-5.20
2023-03-29T00:08:58.995Z,-5.30
2023-03-29T00:11:27.419Z,-5.00
2023-03-29T00:13:53.837Z,-5.00
2023-03-29T00:16:20.425Z,-4.60
2023-03-29T00:18:46.976Z,-5.20
2023-03-29T00:21:13.247Z,-3.60
2023-03-29T00:23:39.397Z,-4.60
2023-03-29T00:26:08.134Z,-4.20
2023-03-29T00:28:35.200Z,-5.10
2023-03-29T00:31:12.918Z,-5.20
2023-03-29T00:33:39.770Z,-5.30
2023-03-29T00:36:08.062Z,-5.40
2023-03-29T00:38:34.657Z,-5.40
2023-03-29T00:41:01.354Z,-4.60
2023-03-29T00:43:28.287Z,-4.50
2023-03-29T00:45:54.657Z,-5.00
2023-03-29T00:48:24.736Z,-5.20
2023-03-29T00:50:58.778Z,-5.70
2023-03-29T00:53:37.010Z,-5.80
2023-03-29T00:56:07.017Z,-5.70
2023-03-29T00:58:42.391Z,-5.10
2023-03-29T01:01:17.210Z,-5.70
2023-03-29T01:03:50.321Z,-5.70
2023-03-29T01:06:17.360Z,-5.60
2023-03-29T01:08:47.171Z,-5.60
2023-03-29T01:11:56.710Z,-3.60
2023-03-29T01:14:58.623Z,-5.50
2023-03-29T01:17:25.559Z,-5.40
2023-03-29T01:21:15.238Z,-5.50
2023-03-29T01:24:12.245Z,-5.50
2023-03-29T01:27:33.335Z,-5.50
2023-03-29T01:30:13.869Z,-5.60
2023-03-29T01:32:59.156Z,-5.40
2023-03-29T01:35:44.845Z,-5.70
2023-03-29T01:38:24.303Z,-5.80
2023-03-29T01:40:51.338Z,-5.80
2023-03-29T01:43:30.926Z,-5.80
2023-03-29T01:48:11.989Z,-5.60
2023-03-29T01:50:53.614Z,-5.80
2023-03-29T01:55:12.470Z,-5.60
2023-03-29T01:57:39.283Z,-5.40
2023-03-29T02:00:10.329Z,-5.30
2023-03-29T02:02:39.615Z,-5.20
2023-03-29T02:05:10.105Z,-5.20
2023-03-29T02:07:37.616Z,-5.20
2023-03-29T02:10:05.818Z,-5.30
2023-03-29T02:12:32.564Z,-5.30
2023-03-29T02:15:00.603Z,-5.40
2023-03-29T02:17:27.133Z,-5.40
2023-03-29T02:20:14.224Z,-5.40
2023-03-29T02:22:58.580Z,-5.60
2023-03-29T02:25:25.348Z,-5.50
2023-03-29T02:27:52.208Z,-5.50
2023-03-29T02:30:20.251Z,-5.60
2023-03-29T02:33:25.548Z,-4.10
2023-03-29T02:35:56.963Z,-5.30
2023-03-29T02:38:26.180Z,-5.20
2023-03-29T02:40:52.369Z,-5.10
2023-03-29T02:43:18.613Z,-3.60
2023-03-29T02:45:44.784Z,-3.50
2023-03-29T02:48:12.959Z,-3.60
2023-03-29T02:50:40.100Z,-4.40
2023-03-29T02:53:17.752Z,-4.90
2023-03-29T02:55:46.413Z,-4.80
2023-03-29T02:58:15.016Z,-2.30
2023-03-29T03:00:45.728Z,-3.40
2023-03-29T03:03:13.136Z,-4.80
2023-03-29T03:05:39.873Z,-4.80
2023-03-29T03:08:06.919Z,-4.90
2023-03-29T03:10:34.027Z,-5.00
2023-03-29T03:13:00.663Z,-5.00
2023-03-29T03:15:27.098Z,-5.00
2023-03-29T03:17:54.056Z,-3.80
2023-03-29T03:20:23.358Z,-5.00
2023-03-29T03:22:50.199Z,-3.00
2023-03-29T03:25:18.881Z,-3.60
2023-03-29T03:27:45.814Z,-4.80
2023-03-29T03:30:12.612Z,-4.00
2023-03-29T03:32:38.833Z,-4.70
2023-03-29T03:35:06.840Z,-4.80
2023-03-29T03:37:33.033Z,-4.70
2023-03-29T03:39:59.916Z,-3.90
2023-03-29T03:42:28.958Z,-4.70
2023-03-29T03:44:56.000Z,-4.40
2023-03-29T03:47:22.269Z,-2.10
2023-03-29T03:49:48.493Z,-4.70
2023-03-29T03:52:15.186Z,-3.20
2023-03-29T03:54:41.387Z,-4.70
2023-03-29T03:57:07.580Z,-3.90
2023-03-29T03:59:33.911Z,-4.50
2023-03-29T04:02:00.718Z,-4.70
2023-03-29T04:04:27.867Z,-4.50
2023-03-29T04:06:54.208Z,-4.60
2023-03-29T04:09:22.788Z,-3.40
2023-03-29T04:11:49.587Z,-4.60
2023-03-29T04:14:16.529Z,-4.60
2023-03-29T04:16:42.713Z,-4.40
2023-03-29T04:19:09.946Z,-3.70
2023-03-29T04:21:36.110Z,-4.40
2023-03-29T04:24:03.241Z,-3.40
2023-03-29T04:26:29.629Z,-3.70
2023-03-29T04:28:55.843Z,-4.00
2023-03-29T04:31:22.086Z,-4.20
2023-03-29T04:33:48.391Z,-4.10
2023-03-29T04:36:15.193Z,-4.10
2023-03-29T04:38:43.354Z,-3.10
2023-03-29T04:41:15.089Z,-4.00
2023-03-29T04:43:45.840Z,-3.60
2023-03-29T04:46:14.819Z,-3.90
2023-03-29T04:48:41.233Z,-4.00
2023-03-29T04:51:07.416Z,-3.90
2023-03-29T04:53:33.657Z,-3.90
2023-03-29T04:55:59.790Z,-3.90
2023-03-29T04:58:32.245Z,-2.40
2023-03-29T05:00:59.248Z,-3.70
2023-03-29T05:03:27.133Z,-3.60
2023-03-29T05:05:53.382Z,-3.50
2023-03-29T05:08:19.678Z,-3.10
2023-03-29T05:10:46.895Z,-3.30
2023-03-29T05:13:13.106Z,-2.90
2023-03-29T05:15:40.829Z,-2.80
2023-03-29T05:18:07.607Z,-1.20
2023-03-29T05:20:33.950Z,0.20
2023-03-29T05:23:01.234Z,0.90
2023-03-29T05:25:27.489Z,0.60
2023-03-29T05:27:53.745Z,0.00
2023-03-29T05:30:20.234Z,-0.20
2023-03-29T05:32:47.628Z,-0.30
2023-03-29T05:35:14.935Z,-0.20
2023-03-29T05:37:41.315Z,0.20
2023-03-29T05:40:09.698Z,1.10
2023-03-29T05:42:37.208Z,2.20
2023-03-29T05:45:04.051Z,3.10
2023-03-29T05:47:31.078Z,4.50
2023-03-29T05:49:57.414Z,5.00
2023-03-29T05:52:23.876Z,5.60
2023-03-29T05:54:50.063Z,5.70
2023-03-29T05:57:16.263Z,5.10
2023-03-29T05:59:42.735Z,5.10
2023-03-29T06:02:11.424Z,6.40
2023-03-29T06:04:37.983Z,7.00
2023-03-29T06:07:04.436Z,7.70
2023-03-29T06:09:31.603Z,7.60
2023-03-29T06:11:59.356Z,8.50
2023-03-29T06:14:26.681Z,9.30
2023-03-29T06:16:52.899Z,9.20
2023-03-29T06:19:19.080Z,8.70
2023-03-29T06:21:45.254Z,8.10
2023-03-29T06:24:11.518Z,7.90
2023-03-29T06:26:37.653Z,8.10
2023-03-29T06:29:04.019Z,7.50
2023-03-29T06:31:31.034Z,7.40
2023-03-29T06:33:57.820Z,7.60
2023-03-29T06:36:24.088Z,8.00
2023-03-29T06:38:50.238Z,7.60
2023-03-29T06:41:16.398Z,8.00
2023-03-29T06:43:42.825Z,9.50
2023-03-29T06:46:12.560Z,10.00
2023-03-29T06:48:41.421Z,10.90
2023-03-29T06:51:08.719Z,11.00
2023-03-29T06:53:37.310Z,11.40
2023-03-29T06:56:08.405Z,11.60
2023-03-29T06:58:35.142Z,10.60
2023-03-29T07:01:04.575Z,10.70
2023-03-29T07:03:34.145Z,11.10
2023-03-29T07:06:03.542Z,11.80
2023-03-29T07:08:32.039Z,12.40
2023-03-29T07:10:58.762Z,13.10
2023-03-29T07:13:25.653Z,12.60
2023-03-29T07:15:52.183Z,12.40
2023-03-29T07:18:20.228Z,11.40
2023-03-29T07:20:47.775Z,11.10
2023-03-29T07:23:15.146Z,11.10
2023-03-29T07:25:41.565Z,10.80
2023-03-29T07:28:08.584Z,10.70
2023-03-29T07:30:34.936Z,9.80
2023-03-29T07:33:01.347Z,9.20
2023-03-29T07:35:27.692Z,8.50
2023-03-29T07:37:57.925Z,9.00
2023-03-29T07:40:25.631Z,9.30
2023-03-29T07:42:53.957Z,9.60
2023-03-29T07:45:26.707Z,9.70
2023-03-29T07:47:58.130Z,10.40
2023-03-29T07:50:26.540Z,10.70
2023-03-29T07:52:52.695Z,10.70
2023-03-29T07:55:19.051Z,10.60
2023-03-29T07:57:45.655Z,10.40
2023-03-29T08:00:15.798Z,10.00
2023-03-29T08:02:43.829Z,10.40
2023-03-29T08:05:12.028Z,9.90
2023-03-29T08:07:39.725Z,9.80
2023-03-29T08:10:08.443Z,10.20
2023-03-29T08:12:35.809Z,10.50
2023-03-29T08:15:02.561Z,11.10
2023-03-29T08:17:28.864Z,11.10
2023-03-29T08:19:56.063Z,11.00
2023-03-29T08:22:22.220Z,9.90
2023-03-29T08:24:48.861Z,11.70
2023-03-29T08:27:15.856Z,12.80
2023-03-29T08:29:42.083Z,13.40
2023-03-29T08:32:09.406Z,14.10
2023-03-29T08:34:36.172Z,12.50
2023-03-29T08:37:03.608Z,14.20
2023-03-29T08:39:31.464Z,14.00
2023-03-29T08:46:09.148Z,13.50
2023-03-29T08:48:44.042Z,14.10
2023-03-29T08:51:22.620Z,14.10
2023-03-29T08:53:56.809Z,14.00
2023-03-29T08:56:27.346Z,13.80
2023-03-29T08:58:57.531Z,14.00
2023-03-29T09:01:24.638Z,13.90
2023-03-29T09:04:11.517Z,14.40
2023-03-29T09:06:38.987Z,14.90
2023-03-29T09:09:09.480Z,14.40
2023-03-29T09:14:56.495Z,14.00
2023-03-29T09:17:38.687Z,13.80
2023-03-29T09:21:45.891Z,13.40
2023-03-29T09:25:41.065Z,12.90
2023-03-29T09:28:34.125Z,13.40
2023-03-29T09:31:22.571Z,15.00
2023-03-29T09:34:04.089Z,14.00
2023-03-29T09:36:52.932Z,14.30
2023-03-29T09:39:20.701Z,14.20
2023-03-29T09:42:20.216Z,14.10
2023-03-29T09:45:07.819Z,14.40
2023-03-29T09:48:03.093Z,14.90
2023-03-29T09:50:40.737Z,14.80
2023-03-29T09:53:10.968Z,14.20
2023-03-29T09:55:39.389Z,14.60
2023-03-29T09:58:20.124Z,15.40
2023-03-29T10:00:46.794Z,14.80
2023-03-29T10:03:29.555Z,14.70
2023-03-29T10:05:56.933Z,15.20
2023-03-29T10:08:30.777Z,17.00
2023-03-29T10:10:57.791Z,16.40
2023-03-29T10:13:30.966Z,16.10
2023-03-29T10:16:33.860Z,16.00
2023-03-29T10:20:59.537Z,16.80
2023-03-29T10:23:30.929Z,16.60
2023-03-29T10:25:57.102Z,15.40
2023-03-29T10:28:25.762Z,15.00
2023-03-29T10:30:53.729Z,14.70
2023-03-29T10:33:21.309Z,14.80
2023-03-29T10:35:48.108Z,14.10
2023-03-29T10:38:17.456Z,14.70
2023-03-29T10:40:48.086Z,13.40
2023-03-29T10:43:39.156Z,13.50
2023-03-29T10:46:12.876Z,13.60
2023-03-29T10:48:39.218Z,13.60
2023-03-29T10:51:07.489Z,13.40
2023-03-29T10:53:36.993Z,13.60
2023-03-29T11:02:58.866Z,13.60
2023-03-29T11:05:42.683Z,13.70
2023-03-29T11:11:16.650Z,13.70
2023-03-29T11:13:58.645Z,13.60
2023-03-29T11:16:43.134Z,13.90
2023-03-29T11:22:06.113Z,12.00
2023-03-29T11:24:51.918Z,13.20
2023-03-29T11:27:55.440Z,13.00
2023-03-29T11:32:06.370Z,12.80
2023-03-29T11:35:08.666Z,13.30
2023-03-29T11:40:49.762Z,13.70
2023-03-29T11:43:35.226Z,13.80
2023-03-29T11:46:17.286Z,15.10
2023-03-29T11:49:14.925Z,14.60
2023-03-29T11:51:54.806Z,13.30
2023-03-29T11:54:30.791Z,13.00
2023-03-29T11:57:23.691Z,12.90
2023-03-29T12:00:22.820Z,13.30
2023-03-29T12:06:41.504Z,14.10
2023-03-29T12:09:27.734Z,13.70
2023-03-29T12:12:03.056Z,13.40
2023-03-29T12:15:21.392Z,13.60
2023-03-29T12:18:36.482Z,14.20
2023-03-29T12:21:06.738Z,14.10
2023-03-29T12:23:37.685Z,14.40
2023-03-29T12:26:36.017Z,14.60
2023-03-29T12:36:05.300Z,14.20
2023-03-29T12:38:34.123Z,14.10
2023-03-29T12:41:14.235Z,14.00
2023-03-29T12:43:43.579Z,14.10
2023-03-29T12:49:38.527Z,12.60
2023-03-29T12:52:31.593Z,12.50
2023-03-29T12:54:59.794Z,12.30
2023-03-29T13:04:19.997Z,12.80
2023-03-29T13:07:03.213Z,13.60
2023-03-29T13:09:55.765Z,12.90
2023-03-29T13:12:35.434Z,13.00
2023-03-29T13:15:06.924Z,13.30
2023-03-29T13:19:27.362Z,13.50
2023-03-29T13:28:33.289Z,12.80
2023-03-29T13:31:04.620Z,13.50
2023-03-29T13:33:44.014Z,15.30
2023-03-29T13:43:01.065Z,13.80
2023-03-29T13:45:32.449Z,13.40
2023-03-29T13:48:07.176Z,13.00
2023-03-29T13:50:38.711Z,12.60
2023-03-29T13:53:14.648Z,12.80
2023-03-29T13:55:45.517Z,12.80
2023-03-29T13:58:31.933Z,12.50
2023-03-29T14:02:54.410Z,12.20
2023-03-29T14:05:35.756Z,12.00
2023-03-29T14:08:30.498Z,11.60
2023-03-29T14:11:00.251Z,11.60
2023-03-29T14:13:26.637Z,11.60
2023-03-29T14:15:59.081Z,11.90
2023-03-29T14:18:25.863Z,12.10
2023-03-29T14:20:54.469Z,11.80
2023-03-29T14:23:25.849Z,11.90
2023-03-29T14:25:52.258Z,11.80
2023-03-29T14:28:22.124Z,11.50
2023-03-29T14:30:51.944Z,11.50
2023-03-29T14:33:27.292Z,11.30
2023-03-29T14:35:55.148Z,11.20
2023-03-29T14:38:24.934Z,11.10
2023-03-29T14:40:52.783Z,11.10
2023-03-29T14:43:23.404Z,11.20
2023-03-29T14:45:49.916Z,13.00
2023-03-29T14:48:17.459Z,11.10
2023-03-29T14:50:43.800Z,11.00
2023-03-29T14:53:19.316Z,11.00
2023-03-29T14:55:48.412Z,11.10
2023-03-29T14:58:22.758Z,11.40
2023-03-29T15:00:51.852Z,11.50
2023-03-29T15:03:18.647Z,12.00
2023-03-29T15:05:53.655Z,11.60
2023-03-29T15:08:33.933Z,11.80
2023-03-29T15:11:01.604Z,11.60
2023-03-29T15:13:28.113Z,11.80
2023-03-29T15:15:57.670Z,12.00
2023-03-29T15:18:31.245Z,12.00
2023-03-29T15:20:58.758Z,11.70
2023-03-29T15:23:25.312Z,11.60
2023-03-29T15:25:59.549Z,11.70
2023-03-29T15:28:35.962Z,12.40
2023-03-29T15:31:12.530Z,11.40
2023-03-29T15:33:40.781Z,11.50
2023-03-29T15:36:08.887Z,11.60
2023-03-29T15:38:43.847Z,11.40
2023-03-29T15:41:14.929Z,11.50
2023-03-29T15:43:41.672Z,11.50
2023-03-29T15:46:13.257Z,11.30
2023-03-29T15:48:40.526Z,11.10
2023-03-29T15:51:07.261Z,10.80
2023-03-29T15:53:34.941Z,10.70
2023-03-29T15:56:01.649Z,10.70
2023-03-29T15:58:30.750Z,10.60
2023-03-29T16:01:42.375Z,10.90
2023-03-29T16:04:16.906Z,10.00
2023-03-29T16:06:44.471Z,9.70
2023-03-29T16:09:13.706Z,9.50
2023-03-29T16:11:41.129Z,9.30
2023-03-29T16:14:27.587Z,9.10
2023-03-29T16:16:54.958Z,8.90
2023-03-29T16:19:22.224Z,8.80
2023-03-29T16:21:49.726Z,8.70
2023-03-29T16:24:23.558Z,8.70
2023-03-29T16:26:53.364Z,8.80
2023-03-29T16:29:22.153Z,8.80
2023-03-29T16:31:49.799Z,8.80
2023-03-29T16:34:18.990Z,8.70
2023-03-29T16:36:46.972Z,8.80
2023-03-29T16:39:13.650Z,8.70
2023-03-29T16:41:41.478Z,8.60
2023-03-29T16:44:07.792Z,8.60
2023-03-29T16:46:34.475Z,8.50
2023-03-29T16:49:01.484Z,8.40
2023-03-29T16:51:28.131Z,8.40
2023-03-29T16:53:56.403Z,8.40
2023-03-29T16:56:22.606Z,8.40
2023-03-29T16:58:48.842Z,8.30
2023-03-29T17:01:16.768Z,8.30
2023-03-29T17:03:45.314Z,10.10
2023-03-29T17:06:11.590Z,8.20
2023-03-29T17:08:38.641Z,8.10
2023-03-29T17:11:06.858Z,8.00
2023-03-29T17:13:33.492Z,8.00
2023-03-29T17:16:00.102Z,7.90
2023-03-29T17:18:26.665Z,7.90
2023-03-29T17:20:55.839Z,7.90
2023-03-29T17:23:22.517Z,7.80
2023-03-29T17:25:49.857Z,7.80
2023-03-29T17:28:17.708Z,7.80
2023-03-29T17:30:49.273Z,7.80
2023-03-29T17:33:16.965Z,7.70
2023-03-29T17:35:43.891Z,7.70
2023-03-29T17:38:11.926Z,7.70
2023-03-29T17:40:40.589Z,7.70
2023-03-29T17:43:07.737Z,7.60
2023-03-29T17:45:36.267Z,7.60
2023-03-29T17:48:06.161Z,7.60
2023-03-29T17:50:34.630Z,7.50
2023-03-29T17:53:02.022Z,7.50
2023-03-29T17:55:29.288Z,7.40
2023-03-29T17:57:58.584Z,7.40
2023-03-29T18:00:25.383Z,7.30
2023-03-29T18:02:53.197Z,7.20
2023-03-29T18:05:21.368Z,7.10
2023-03-29T18:07:48.507Z,7.00
2023-03-29T18:10:16.174Z,7.00
2023-03-29T18:12:42.416Z,6.90
2023-03-29T18:15:11.067Z,6.90
2023-03-29T18:17:38.192Z,6.90
2023-03-29T18:20:13.132Z,6.90
2023-03-29T18:22:41.055Z,6.90
2023-03-29T18:25:11.239Z,6.90
2023-03-29T18:27:40.416Z,6.80
2023-03-29T18:30:07.873Z,6.80
2023-03-29T18:32:34.860Z,6.80
2023-03-29T18:35:02.069Z,6.80
2023-03-29T18:37:28.509Z,6.80
2023-03-29T18:39:55.347Z,6.70
2023-03-29T18:42:22.500Z,6.70
2023-03-29T18:44:51.173Z,6.70
2023-03-29T18:47:18.112Z,6.70
2023-03-29T18:49:47.569Z,4.60
2023-03-29T18:52:15.222Z,6.70
2023-03-29T18:54:42.677Z,6.70
2023-03-29T18:57:11.580Z,6.60
2023-03-29T18:59:39.805Z,6.50
2023-03-29T19:02:06.836Z,6.50
2023-03-29T19:04:34.078Z,6.50
2023-03-29T19:07:01.828Z,6.40
2023-03-29T19:09:28.164Z,6.40
2023-03-29T19:11:55.600Z,6.50
2023-03-29T19:14:25.579Z,6.50
2023-03-29T19:16:52.562Z,6.50
2023-03-29T19:19:18.965Z,6.60
2023-03-29T19:21:49.413Z,6.50
2023-03-29T19:24:17.372Z,6.50
2023-03-29T19:26:44.103Z,6.60
2023-03-29T19:29:10.637Z,6.50
2023-03-29T19:31:40.131Z,6.50
2023-03-29T19:34:10.359Z,6.60
2023-03-29T19:36:37.638Z,6.60
2023-03-29T19:39:05.050Z,6.60
2023-03-29T19:41:31.241Z,6.60
2023-03-29T19:44:00.668Z,6.50
2023-03-29T19:46:28.297Z,6.50
2023-03-29T19:49:00.060Z,6.50
2023-03-29T19:51:30.966Z,6.60
2023-03-29T19:54:00.287Z,6.50
2023-03-29T19:56:27.796Z,6.50
2023-03-29T19:58:55.435Z,6.50
2023-03-29T20:01:28.700Z,6.50
2023-03-29T20:03:56.505Z,6.50
2023-03-29T20:06:29.690Z,6.50
2023-03-29T20:08:59.554Z,7.20
2023-03-29T20:11:25.851Z,6.50
2023-03-29T20:13:55.879Z,6.50
2023-03-29T20:16:27.832Z,6.60
2023-03-29T20:19:02.697Z,6.50
2023-03-29T20:21:37.846Z,6.60
2023-03-29T20:24:09.886Z,6.60
2023-03-29T20:26:36.623Z,6.60
2023-03-29T20:29:07.084Z,6.60
2023-03-29T20:31:34.761Z,6.50
2023-03-29T20:34:04.034Z,6.50
2023-03-29T20:36:31.700Z,6.50
2023-03-29T20:38:59.855Z,6.50
2023-03-29T20:41:27.494Z,6.60
2023-03-29T20:43:59.848Z,6.60
2023-03-29T20:46:34.546Z,6.60
2023-03-29T20:49:01.724Z,6.50
2023-03-29T20:51:29.636Z,6.50
2023-03-29T20:54:05.000Z,6.50
2023-03-29T20:56:41.648Z,6.50
2023-03-29T20:59:11.400Z,6.50
2023-03-29T21:01:39.934Z,6.50
2023-03-29T21:04:11.200Z,6.50
2023-03-29T21:06:38.966Z,6.40
2023-03-29T21:09:05.648Z,6.50
2023-03-29T21:11:33.475Z,6.50
2023-03-29T21:13:59.801Z,6.40
2023-03-29T21:16:28.260Z,6.40
2023-03-29T21:18:55.934Z,6.30
2023-03-29T21:21:22.619Z,6.30
2023-03-29T21:23:51.147Z,6.20
2023-03-29T21:26:17.477Z,6.10
2023-03-29T21:28:44.777Z,6.10
2023-03-29T21:31:11.062Z,6.10
2023-03-29T21:33:37.714Z,6.10
2023-03-29T21:36:04.364Z,6.10
2023-03-29T21:38:30.587Z,6.10
2023-03-29T21:40:58.147Z,6.10
2023-03-29T21:43:24.773Z,5.90
2023-03-29T21:45:51.438Z,5.80
2023-03-29T21:48:18.063Z,5.70
2023-03-29T21:50:47.274Z,5.50
2023-03-29T21:53:13.410Z,5.30
2023-03-29T21:55:39.935Z,5.20
2023-03-29T21:58:06.254Z,5.10
2023-03-29T22:00:32.535Z,5.10
2023-03-29T22:02:59.445Z,5.00
2023-03-29T22:05:25.957Z,5.00
2023-03-29T22:07:52.169Z,5.10
2023-03-29T22:10:22.172Z,5.10
2023-03-29T22:12:49.034Z,5.10
2023-03-29T22:15:16.596Z,5.20
2023-03-29T22:17:43.042Z,5.20
2023-03-29T22:20:13.421Z,5.30
2023-03-29T22:22:44.219Z,5.30
2023-03-29T22:25:11.029Z,5.40
2023-03-29T22:27:37.357Z,5.40
2023-03-29T22:30:05.160Z,5.40
2023-03-29T22:32:31.796Z,5.60
2023-03-29T22:34:58.197Z,5.50
2023-03-29T22:37:24.372Z,5.60
2023-03-29T22:39:50.673Z,5.60
2023-03-29T22:42:17.512Z,5.70
2023-03-29T22:44:43.793Z,4.30
2023-03-29T22:47:09.985Z,5.70
2023-03-29T22:49:36.289Z,5.70
2023-03-29T22:52:03.582Z,5.70
2023-03-29T22:54:29.998Z,5.80
2023-03-29T22:56:56.582Z,5.80
2023-03-29T22:59:24.504Z,5.80
2023-03-29T23:01:51.315Z,5.80
2023-03-29T23:04:19.449Z,5.90
2023-03-29T23:06:45.873Z,5.90
2023-03-29T23:09:13.967Z,5.90
2023-03-29T23:11:42.558Z,5.90
2023-03-29T23:14:09.094Z,5.90
2023-03-29T23:16:37.236Z,5.90
2023-03-29T23:19:04.389Z,5.90
2023-03-29T23:21:31.698Z,5.90
2023-03-29T23:23:58.150Z,5.90
2023-03-29T23:26:24.593Z,5.90
2023-03-29T23:28:51.983Z,5.90
2023-03-29T23:31:19.266Z,5.90
2023-03-29T23:33:45.723Z,5.90
2023-03-29T23:36:13.718Z,5.90
2023-03-29T23:38:39.971Z,5.90
2023-03-29T23:41:08.205Z,5.90
2023-03-29T23:43:37.017Z,5.80
2023-03-29T23:46:05.440Z,5.80
2023-03-29T23:48:32.420Z,5.80
2023-03-29T23:50:58.628Z,5.80
2023-03-29T23:53:28.649Z,5.80
2023-03-29T23:55:58.478Z,3.90
2023-03-29T23:58:24.776Z,5.90
